sensor_id;sensor_type;location;lat;lon;timestamp;pressure;altitude;pressure_sealevel;temperature;humidity
55066;BME280;40964;42.114;24.220;2023-06-14T00:02:10;97509.94;;;18.40;98.87
55066;BME280;40964;42.114;24.220;2023-06-14T00:04:36;97508.13;;;18.36;99.49
55066;BME280;40964;42.114;24.220;2023-06-14T00:07:03;97501.47;;;18.33;99.52
55066;BME280;40964;42.114;24.220;2023-06-14T00:09:28;97499.91;;;18.27;100.00
55066;BME280;40964;42.114;24.220;2023-06-14T00:11:54;97493.78;;;18.27;100.00
55066;BME280;40964;42.114;24.220;2023-06-14T00:14:19;97493.28;;;18.20;100.00
55066;BME280;40964;42.114;24.220;2023-06-14T00:16:45;97489.53;;;18.21;100.00
55066;BME280;40964;42.114;24.220;2023-06-14T00:19:10;97492.25;;;18.15;100.00
55066;BME280;40964;42.114;24.220;2023-06-14T00:21:37;97481.84;;;18.14;100.00
55066;BME280;40964;42.114;24.220;2023-06-14T00:24:03;97468.56;;;18.09;100.00
55066;BME280;40964;42.114;24.220;2023-06-14T00:26:29;97478.09;;;18.20;100.00
55066;BME280;40964;42.114;24.220;2023-06-14T00:28:55;97475.44;;;18.20;100.00
55066;BME280;40964;42.114;24.220;2023-06-14T00:31:22;97477.59;;;18.18;100.00
55066;BME280;40964;42.114;24.220;2023-06-14T00:33:47;97480.53;;;18.17;100.00
55066;BME280;40964;42.114;24.220;2023-06-14T00:36:13;97471.75;;;18.11;100.00
55066;BME280;40964;42.114;24.220;2023-06-14T00:38:39;97480.25;;;18.18;100.00
55066;BME280;40964;42.114;24.220;2023-06-14T00:41:04;97477.06;;;18.16;100.00
55066;BME280;40964;42.114;24.220;2023-06-14T00:43:30;97478.19;;;18.00;100.00
55066;BME280;40964;42.114;24.220;2023-06-14T00:45:55;97475.81;;;17.93;100.00
55066;BME280;40964;42.114;24.220;2023-06-14T00:48:21;97476.34;;;17.90;100.00
55066;BME280;40964;42.114;24.220;2023-06-14T00:50:49;97479.53;;;17.92;100.00
55066;BME280;40964;42.114;24.220;2023-06-14T00:53:16;97468.41;;;17.80;100.00
55066;BME280;40964;42.114;24.220;2023-06-14T00:55:46;97468.38;;;17.85;100.00
55066;BME280;40964;42.114;24.220;2023-06-14T00:58:12;97477.16;;;17.85;100.00
55066;BME280;40964;42.114;24.220;2023-06-14T01:00:37;97478.75;;;17.86;100.00
55066;BME280;40964;42.114;24.220;2023-06-14T01:03:03;97483.28;;;17.86;100.00
55066;BME280;40964;42.114;24.220;2023-06-14T01:05:29;97477.94;;;17.91;100.00
55066;BME280;40964;42.114;24.220;2023-06-14T01:10:53;97478.47;;;17.93;100.00
55066;BME280;40964;42.114;24.220;2023-06-14T01:13:33;97479.00;;;17.90;100.00
55066;BME280;40964;42.114;24.220;2023-06-14T01:15:59;97475.81;;;17.93;100.00
55066;BME280;40964;42.114;24.220;2023-06-14T01:18:25;97484.34;;;17.85;100.00
55066;BME280;40964;42.114;24.220;2023-06-14T01:20:53;97484.34;;;17.85;100.00
55066;BME280;40964;42.114;24.220;2023-06-14T01:23:21;97483.28;;;17.86;100.00
55066;BME280;40964;42.114;24.220;2023-06-14T01:25:47;97485.13;;;17.85;100.00
55066;BME280;40964;42.114;24.220;2023-06-14T01:28:19;97483.03;;;17.82;100.00
55066;BME280;40964;42.114;24.220;2023-06-14T01:30:49;97474.75;;;17.89;100.00
55066;BME280;40964;42.114;24.220;2023-06-14T01:33:26;97479.78;;;17.96;100.00
55066;BME280;40964;42.114;24.220;2023-06-14T01:35:53;97482.69;;;18.04;100.00
55066;BME280;40964;42.114;24.220;2023-06-14T01:38:22;97479.50;;;18.07;100.00
55066;BME280;40964;42.114;24.220;2023-06-14T01:40:48;97475.75;;;18.08;100.00
55066;BME280;40964;42.114;24.220;2023-06-14T01:43:16;97476.28;;;18.15;100.00
55066;BME280;40964;42.114;24.220;2023-06-14T01:45:42;97471.69;;;18.21;100.00
55066;BME280;40964;42.114;24.220;2023-06-14T01:48:09;97478.38;;;18.19;100.00
55066;BME280;40964;42.114;24.220;2023-06-14T01:50:35;97474.41;;;18.16;100.00
55066;BME280;40964;42.114;24.220;2023-06-14T01:53:00;97481.00;;;18.24;100.00
55066;BME280;40964;42.114;24.220;2023-06-14T01:55:26;97482.56;;;18.30;100.00
55066;BME280;40964;42.114;24.220;2023-06-14T01:57:52;97475.66;;;18.34;100.00
55066;BME280;40964;42.114;24.220;2023-06-14T02:00:18;97476.16;;;18.36;100.00
55066;BME280;40964;42.114;24.220;2023-06-14T02:02:44;97475.66;;;18.34;100.00
55066;BME280;40964;42.114;24.220;2023-06-14T02:05:11;97477.25;;;18.35;100.00
55066;BME280;40964;42.114;24.220;2023-06-14T02:07:36;97447.47;;;18.23;100.00
55066;BME280;40964;42.114;24.220;2023-06-14T02:10:04;97471.06;;;18.39;100.00
55066;BME280;40964;42.114;24.220;2023-06-14T02:12:30;97468.19;;;18.36;100.00
55066;BME280;40964;42.114;24.220;2023-06-14T02:14:56;97470.56;;;18.32;100.00
55066;BME280;40964;42.114;24.220;2023-06-14T02:17:22;97466.88;;;18.33;100.00
55066;BME280;40964;42.114;24.220;2023-06-14T02:19:48;97473.00;;;18.34;100.00
55066;BME280;40964;42.114;24.220;2023-06-14T02:22:14;97461.56;;;18.28;100.00
55066;BME280;40964;42.114;24.220;2023-06-14T02:24:41;97471.94;;;18.30;100.00
55066;BME280;40964;42.114;24.220;2023-06-14T02:27:06;97474.56;;;18.35;100.00
55066;BME280;40964;42.114;24.220;2023-06-14T02:29:33;97474.03;;;18.33;100.00
55066;BME280;40964;42.114;24.220;2023-06-14T02:31:59;97479.69;;;18.26;100.00
55066;BME280;40964;42.114;24.220;2023-06-14T02:34:24;97483.41;;;18.20;100.00
55066;BME280;40964;42.114;24.220;2023-06-14T02:36:49;97480.53;;;18.17;100.00
55066;BME280;40964;42.114;24.220;2023-06-14T02:39:15;97491.69;;;18.13;100.00
55066;BME280;40964;42.114;24.220;2023-06-14T02:41:41;97482.94;;;18.08;100.00
55066;BME280;40964;42.114;24.220;2023-06-14T02:44:07;97490.38;;;18.11;100.00
55066;BME280;40964;42.114;24.220;2023-06-14T02:46:32;97487.47;;;18.07;100.00
55066;BME280;40964;42.114;24.220;2023-06-14T02:48:58;97488.28;;;18.08;100.00
55066;BME280;40964;42.114;24.220;2023-06-14T02:51:24;97497.84;;;18.09;100.00
55066;BME280;40964;42.114;24.220;2023-06-14T02:53:49;97490.09;;;18.12;100.00
55066;BME280;40964;42.114;24.220;2023-06-14T02:56:15;97490.38;;;18.16;100.00
55066;BME280;40964;42.114;24.220;2023-06-14T02:58:42;97485.34;;;18.09;100.00
55066;BME280;40964;42.114;24.220;2023-06-14T03:01:08;97490.91;;;18.13;100.00
55066;BME280;40964;42.114;24.220;2023-06-14T03:03:35;97491.97;;;18.17;100.00
55066;BME280;40964;42.114;24.220;2023-06-14T03:06:03;97500.22;;;18.15;100.00
55066;BME280;40964;42.114;24.220;2023-06-14T03:08:32;97504.25;;;18.08;100.00
55066;BME280;40964;42.114;24.220;2023-06-14T03:11:03;97502.38;;;18.03;100.00
55066;BME280;40964;42.114;24.220;2023-06-14T03:13:30;97516.47;;;18.04;100.00
55066;BME280;40964;42.114;24.220;2023-06-14T03:15:57;97514.09;;;18.02;100.00
55066;BME280;40964;42.114;24.220;2023-06-14T03:18:23;97509.28;;;18.09;100.00
55066;BME280;40964;42.114;24.220;2023-06-14T03:20:48;97513.78;;;18.14;100.00
55066;BME280;40964;42.114;24.220;2023-06-14T03:23:14;97506.59;;;18.20;100.00
55066;BME280;40964;42.114;24.220;2023-06-14T03:25:39;97513.78;;;18.19;100.00
55066;BME280;40964;42.114;24.220;2023-06-14T03:28:07;97512.69;;;18.20;100.00
55066;BME280;40964;42.114;24.220;2023-06-14T03:30:33;97510.31;;;18.19;100.00
55066;BME280;40964;42.114;24.220;2023-06-14T03:32:58;97514.06;;;18.12;100.00
55066;BME280;40964;42.114;24.220;2023-06-14T03:35:26;97519.09;;;18.14;100.00
55066;BME280;40964;42.114;24.220;2023-06-14T03:37:52;97527.34;;;18.18;100.00
55066;BME280;40964;42.114;24.220;2023-06-14T03:40:18;97524.63;;;18.33;100.00
55066;BME280;40964;42.114;24.220;2023-06-14T03:42:45;97535.50;;;18.41;100.00
55066;BME280;40964;42.114;24.220;2023-06-14T03:45:10;97537.13;;;18.42;100.00
55066;BME280;40964;42.114;24.220;2023-06-14T03:47:36;97537.38;;;18.41;100.00
55066;BME280;40964;42.114;24.220;2023-06-14T03:50:02;97537.63;;;18.44;100.00
55066;BME280;40964;42.114;24.220;2023-06-14T03:52:29;97546.94;;;18.52;100.00
55066;BME280;40964;42.114;24.220;2023-06-14T03:54:54;97539.97;;;18.56;100.00
55066;BME280;40964;42.114;24.220;2023-06-14T03:57:21;97538.91;;;18.57;100.00
55066;BME280;40964;42.114;24.220;2023-06-14T03:59:47;97532.75;;;18.62;100.00
55066;BME280;40964;42.114;24.220;2023-06-14T04:02:12;97536.50;;;18.56;100.00
55066;BME280;40964;42.114;24.220;2023-06-14T04:04:41;97540.53;;;18.48;100.00
55066;BME280;40964;42.114;24.220;2023-06-14T04:07:10;97533.63;;;18.42;100.00
55066;BME280;40964;42.114;24.220;2023-06-14T04:09:37;97538.72;;;18.38;100.00
55066;BME280;40964;42.114;24.220;2023-06-14T04:12:02;97534.19;;;18.44;100.00
55066;BME280;40964;42.114;24.220;2023-06-14T04:14:28;97536.28;;;18.47;100.00
55066;BME280;40964;42.114;24.220;2023-06-14T04:16:53;97540.25;;;18.50;100.00
55066;BME280;40964;42.114;24.220;2023-06-14T04:19:18;97535.94;;;18.59;100.00
55066;BME280;40964;42.114;24.220;2023-06-14T04:21:44;97533.56;;;18.62;100.00
55066;BME280;40964;42.114;24.220;2023-06-14T04:24:10;97540.75;;;18.62;100.00
55066;BME280;40964;42.114;24.220;2023-06-14T04:26:42;97528.22;;;18.62;100.00
55066;BME280;40964;42.114;24.220;2023-06-14T04:29:13;97533.25;;;18.74;100.00
55066;BME280;40964;42.114;24.220;2023-06-14T04:31:42;97542.84;;;18.75;100.00
55066;BME280;40964;42.114;24.220;2023-06-14T04:34:10;97552.13;;;18.78;100.00
55066;BME280;40964;42.114;24.220;2023-06-14T04:36:42;97551.09;;;18.79;100.00
55066;BME280;40964;42.114;24.220;2023-06-14T04:39:17;97555.06;;;18.76;100.00
55066;BME280;40964;42.114;24.220;2023-06-14T04:41:44;97550.28;;;18.78;100.00
55066;BME280;40964;42.114;24.220;2023-06-14T04:44:09;97550.22;;;18.88;100.00
55066;BME280;40964;42.114;24.220;2023-06-14T04:46:36;97554.22;;;18.91;100.00
55066;BME280;40964;42.114;24.220;2023-06-14T04:49:17;97565.84;;;19.05;100.00
55066;BME280;40964;42.114;24.220;2023-06-14T04:51:43;97551.97;;;19.08;100.00
55066;BME280;40964;42.114;24.220;2023-06-14T04:54:10;97550.81;;;19.19;100.00
55066;BME280;40964;42.114;24.220;2023-06-14T04:56:39;97555.88;;;19.21;100.00
55066;BME280;40964;42.114;24.220;2023-06-14T04:59:05;97562.28;;;19.20;100.00
55066;BME280;40964;42.114;24.220;2023-06-14T05:01:31;97564.59;;;19.32;100.00
55066;BME280;40964;42.114;24.220;2023-06-14T05:03:57;97569.66;;;19.33;100.00
55066;BME280;40964;42.114;24.220;2023-06-14T05:06:23;97561.28;;;19.45;99.32
55066;BME280;40964;42.114;24.220;2023-06-14T05:08:49;97574.84;;;19.53;100.00
55066;BME280;40964;42.114;24.220;2023-06-14T05:11:15;97568.59;;;19.68;99.94
55066;BME280;40964;42.114;24.220;2023-06-14T05:13:42;97574.28;;;19.85;98.16
55066;BME280;40964;42.114;24.220;2023-06-14T05:16:08;97568.69;;;19.87;97.05
55066;BME280;40964;42.114;24.220;2023-06-14T05:18:34;97578.47;;;19.97;95.47
55066;BME280;40964;42.114;24.220;2023-06-14T05:21:00;97587.59;;;19.91;95.28
55066;BME280;40964;42.114;24.220;2023-06-14T05:23:26;97588.06;;;19.98;95.62
55066;BME280;40964;42.114;24.220;2023-06-14T05:25:51;97590.78;;;19.93;95.44
55066;BME280;40964;42.114;24.220;2023-06-14T05:28:17;97587.69;;;20.09;95.52
55066;BME280;40964;42.114;24.220;2023-06-14T05:30:42;97597.31;;;20.34;95.41
55066;BME280;40964;42.114;24.220;2023-06-14T05:33:09;97590.00;;;20.45;92.53
55066;BME280;40964;42.114;24.220;2023-06-14T05:35:34;97599.59;;;20.46;92.43
55066;BME280;40964;42.114;24.220;2023-06-14T05:38:00;97595.06;;;20.47;92.79
55066;BME280;40964;42.114;24.220;2023-06-14T05:40:25;97600.50;;;20.36;93.29
55066;BME280;40964;42.114;24.220;2023-06-14T05:42:51;97595.66;;;20.38;92.33
55066;BME280;40964;42.114;24.220;2023-06-14T05:45:16;97600.56;;;20.31;92.30
55066;BME280;40964;42.114;24.220;2023-06-14T05:47:42;97596.84;;;20.27;92.78
55066;BME280;40964;42.114;24.220;2023-06-14T05:50:07;97604.50;;;20.10;95.30
55066;BME280;40964;42.114;24.220;2023-06-14T05:52:34;97600.84;;;20.01;95.63
55066;BME280;40964;42.114;24.220;2023-06-14T05:57:35;97613.50;;;19.90;97.41
55066;BME280;40964;42.114;24.220;2023-06-14T06:00:00;97610.06;;;19.84;97.13
55066;BME280;40964;42.114;24.220;2023-06-14T06:02:26;97605.22;;;19.92;95.69
55066;BME280;40964;42.114;24.220;2023-06-14T06:04:51;97600.81;;;20.06;95.25
55066;BME280;40964;42.114;24.220;2023-06-14T06:07:17;97605.44;;;20.24;94.34
55066;BME280;40964;42.114;24.220;2023-06-14T06:09:42;97614.25;;;20.25;93.43
55066;BME280;40964;42.114;24.220;2023-06-14T06:12:08;97613.38;;;20.29;92.59
55066;BME280;40964;42.114;24.220;2023-06-14T06:14:34;97603.50;;;20.30;93.27
55066;BME280;40964;42.114;24.220;2023-06-14T06:16:59;97604.75;;;20.37;92.23
55066;BME280;40964;42.114;24.220;2023-06-14T06:19:25;97611.66;;;20.44;92.13
55066;BME280;40964;42.114;24.220;2023-06-14T06:21:50;97609.13;;;20.28;91.36
55066;BME280;40964;42.114;24.220;2023-06-14T06:24:16;97617.53;;;20.17;90.15
55066;BME280;40964;42.114;24.220;2023-06-14T06:26:41;97617.81;;;20.15;91.27
55066;BME280;40964;42.114;24.220;2023-06-14T06:29:07;97614.47;;;20.28;92.28
55066;BME280;40964;42.114;24.220;2023-06-14T06:31:32;97619.69;;;20.44;92.13
55066;BME280;40964;42.114;24.220;2023-06-14T06:33:57;97617.25;;;20.42;91.72
55066;BME280;40964;42.114;24.220;2023-06-14T06:36:24;97620.56;;;20.58;90.76
55066;BME280;40964;42.114;24.220;2023-06-14T06:38:49;97620.03;;;20.61;89.93
55066;BME280;40964;42.114;24.220;2023-06-14T06:41:15;97629.50;;;20.72;89.41
55066;BME280;40964;42.114;24.220;2023-06-14T06:43:41;97627.88;;;20.76;90.09
55066;BME280;40964;42.114;24.220;2023-06-14T06:46:06;97622.94;;;20.83;88.36
55066;BME280;40964;42.114;24.220;2023-06-14T06:48:32;97619.22;;;21.03;87.69
55066;BME280;40964;42.114;24.220;2023-06-14T06:50:57;97634.19;;;21.23;86.64
55066;BME280;40964;42.114;24.220;2023-06-14T06:53:23;97629.47;;;21.39;84.44
55066;BME280;40964;42.114;24.220;2023-06-14T06:55:48;97630.75;;;21.41;85.49
55066;BME280;40964;42.114;24.220;2023-06-14T06:58:14;97636.88;;;21.23;84.43
55066;BME280;40964;42.114;24.220;2023-06-14T07:00:39;97637.38;;;21.25;85.63
55066;BME280;40964;42.114;24.220;2023-06-14T07:03:05;97628.03;;;21.04;85.88
55066;BME280;40964;42.114;24.220;2023-06-14T07:05:30;97631.13;;;21.11;86.60
55066;BME280;40964;42.114;24.220;2023-06-14T07:07:56;97634.91;;;21.10;86.71
55066;BME280;40964;42.114;24.220;2023-06-14T07:10:21;97625.94;;;21.01;86.24
55066;BME280;40964;42.114;24.220;2023-06-14T07:12:47;97628.41;;;21.16;87.14
55066;BME280;40964;42.114;24.220;2023-06-14T07:15:12;97634.94;;;21.29;84.96
55066;BME280;40964;42.114;24.220;2023-06-14T07:17:38;97635.28;;;21.22;86.18
55066;BME280;40964;42.114;24.220;2023-06-14T07:20:04;97630.34;;;21.10;84.56
55066;BME280;40964;42.114;24.220;2023-06-14T07:22:42;97628.84;;;21.23;85.55
55066;BME280;40964;42.114;24.220;2023-06-14T07:25:09;97631.53;;;21.42;86.04
55066;BME280;40964;42.114;24.220;2023-06-14T07:27:35;97625.25;;;21.51;84.86
55066;BME280;40964;42.114;24.220;2023-06-14T07:30:00;97634.63;;;21.68;82.68
55066;BME280;40964;42.114;24.220;2023-06-14T07:32:26;97631.41;;;21.85;83.09
55066;BME280;40964;42.114;24.220;2023-06-14T07:34:51;97631.75;;;21.97;81.74
55066;BME280;40964;42.114;24.220;2023-06-14T07:37:17;97638.81;;;22.06;81.05
55066;BME280;40964;42.114;24.220;2023-06-14T07:39:42;97623.56;;;22.07;80.29
55066;BME280;40964;42.114;24.220;2023-06-14T07:42:07;97631.03;;;22.37;80.19
55066;BME280;40964;42.114;24.220;2023-06-14T07:44:33;97627.28;;;22.52;77.64
55066;BME280;40964;42.114;24.220;2023-06-14T07:46:58;97627.56;;;22.64;76.95
55066;BME280;40964;42.114;24.220;2023-06-14T07:49:25;97636.41;;;22.79;77.36
55066;BME280;40964;42.114;24.220;2023-06-14T07:51:51;97626.16;;;23.08;79.06
55066;BME280;40964;42.114;24.220;2023-06-14T07:54:16;97631.28;;;23.18;73.91
55066;BME280;40964;42.114;24.220;2023-06-14T07:56:42;97636.72;;;23.27;77.26
55066;BME280;40964;42.114;24.220;2023-06-14T07:59:08;97637.03;;;23.26;76.53
55066;BME280;40964;42.114;24.220;2023-06-14T08:01:34;97639.28;;;23.46;71.95
55066;BME280;40964;42.114;24.220;2023-06-14T08:04:00;97638.94;;;23.61;73.06
55066;BME280;40964;42.114;24.220;2023-06-14T08:06:26;97641.59;;;23.75;71.00
55066;BME280;40964;42.114;24.220;2023-06-14T08:08:51;97655.56;;;23.86;70.36
55066;BME280;40964;42.114;24.220;2023-06-14T08:11:17;97654.03;;;23.93;69.96
55066;BME280;40964;42.114;24.220;2023-06-14T08:13:42;97655.53;;;24.08;70.96
55066;BME280;40964;42.114;24.220;2023-06-14T08:16:08;97666.16;;;24.13;68.92
55066;BME280;40964;42.114;24.220;2023-06-14T08:18:33;97651.50;;;24.19;69.12
55066;BME280;40964;42.114;24.220;2023-06-14T08:20:59;97656.25;;;24.22;69.96
55066;BME280;40964;42.114;24.220;2023-06-14T08:23:24;97662.97;;;24.33;68.52
55066;BME280;40964;42.114;24.220;2023-06-14T08:25:50;97667.88;;;24.31;69.19
55066;BME280;40964;42.114;24.220;2023-06-14T08:28:15;97669.38;;;24.46;66.97
55066;BME280;40964;42.114;24.220;2023-06-14T08:30:42;97671.28;;;24.46;68.48
55066;BME280;40964;42.114;24.220;2023-06-14T08:33:08;97671.13;;;24.51;66.10
55066;BME280;40964;42.114;24.220;2023-06-14T08:35:33;97675.31;;;24.66;67.92
55066;BME280;40964;42.114;24.220;2023-06-14T08:38:02;97675.75;;;24.59;68.51
55066;BME280;40964;42.114;24.220;2023-06-14T08:40:30;97671.13;;;24.51;67.85
55066;BME280;40964;42.114;24.220;2023-06-14T08:42:56;97667.03;;;24.31;68.29
55066;BME280;40964;42.114;24.220;2023-06-14T08:45:23;97670.63;;;24.49;68.11
55066;BME280;40964;42.114;24.220;2023-06-14T08:47:50;97672.94;;;24.33;68.10
55066;BME280;40964;42.114;24.220;2023-06-14T08:50:24;97671.03;;;24.65;68.07
55066;BME280;40964;42.114;24.220;2023-06-14T08:52:54;97663.88;;;24.60;65.75
55066;BME280;40964;42.114;24.220;2023-06-14T08:57:56;97668.19;;;25.18;64.76
55066;BME280;40964;42.114;24.220;2023-06-14T09:00:24;97662.41;;;24.94;64.95
55066;BME280;40964;42.114;24.220;2023-06-14T09:02:50;97662.31;;;25.16;65.72
55066;BME280;40964;42.114;24.220;2023-06-14T09:05:24;97662.81;;;25.18;65.00
55066;BME280;40964;42.114;24.220;2023-06-14T09:07:50;97655.84;;;25.43;64.60
55066;BME280;40964;42.114;24.220;2023-06-14T09:10:16;97661.41;;;25.38;63.27
55066;BME280;40964;42.114;24.220;2023-06-14T09:12:42;97650.66;;;25.72;64.24
55066;BME280;40964;42.114;24.220;2023-06-14T09:15:09;97659.22;;;25.83;62.38
55066;BME280;40964;42.114;24.220;2023-06-14T09:17:38;97650.78;;;25.67;61.81
55066;BME280;40964;42.114;24.220;2023-06-14T09:20:05;97647.94;;;25.98;60.56
55066;BME280;40964;42.114;24.220;2023-06-14T09:22:36;97651.78;;;25.80;59.87
55066;BME280;40964;42.114;24.220;2023-06-14T09:25:01;97649.84;;;25.63;60.30
55066;BME280;40964;42.114;24.220;2023-06-14T09:27:28;97640.97;;;25.97;61.50
55066;BME280;40964;42.114;24.220;2023-06-14T09:29:54;97637.13;;;26.16;58.37
55066;BME280;40964;42.114;24.220;2023-06-14T09:32:23;97636.34;;;26.07;56.10
55066;BME280;40964;42.114;24.220;2023-06-14T09:34:49;97636.13;;;26.20;57.55
55066;BME280;40964;42.114;24.220;2023-06-14T09:37:33;97635.63;;;26.36;58.75
55066;BME280;40964;42.114;24.220;2023-06-14T09:39:59;97620.88;;;26.33;57.16
55066;BME280;40964;42.114;24.220;2023-06-14T09:42:25;97622.16;;;26.36;58.92
55066;BME280;40964;42.114;24.220;2023-06-14T09:44:55;97618.66;;;26.73;57.65
55066;BME280;40964;42.114;24.220;2023-06-14T09:47:21;97622.25;;;27.15;55.42
55066;BME280;40964;42.114;24.220;2023-06-14T09:49:48;97621.56;;;27.39;53.59
55066;BME280;40964;42.114;24.220;2023-06-14T09:52:18;97623.44;;;27.27;53.06
55066;BME280;40964;42.114;24.220;2023-06-14T09:54:46;97623.75;;;27.46;53.88
55066;BME280;40964;42.114;24.220;2023-06-14T09:57:30;97619.66;;;27.40;50.99
55066;BME280;40964;42.114;24.220;2023-06-14T10:00:01;97623.34;;;27.56;52.28
55066;BME280;40964;42.114;24.220;2023-06-14T10:02:32;97616.56;;;27.50;52.00
55066;BME280;40964;42.114;24.220;2023-06-14T10:05:07;97615.56;;;27.76;53.96
55066;BME280;40964;42.114;24.220;2023-06-14T10:07:48;97608.63;;;27.87;52.28
55066;BME280;40964;42.114;24.220;2023-06-14T10:10:14;97601.38;;;28.24;51.90
55066;BME280;40964;42.114;24.220;2023-06-14T10:12:40;97598.94;;;28.31;49.11
55066;BME280;40964;42.114;24.220;2023-06-14T10:15:09;97598.78;;;28.27;51.35
55066;BME280;40964;42.114;24.220;2023-06-14T10:17:41;97597.81;;;28.32;50.92
55066;BME280;40964;42.114;24.220;2023-06-14T10:22:50;97595.66;;;28.74;49.07
55066;BME280;40964;42.114;24.220;2023-06-14T10:25:27;97591.53;;;29.17;49.89
55066;BME280;40964;42.114;24.220;2023-06-14T10:28:02;97591.94;;;29.72;46.79
55066;BME280;40964;42.114;24.220;2023-06-14T10:30:28;97596.22;;;29.04;48.50
55066;BME280;40964;42.114;24.220;2023-06-14T10:33:07;97587.53;;;28.99;47.65
55066;BME280;40964;42.114;24.220;2023-06-14T10:35:33;97585.38;;;29.04;47.42
55066;BME280;40964;42.114;24.220;2023-06-14T10:38:09;97567.94;;;29.30;47.55
55066;BME280;40964;42.114;24.220;2023-06-14T10:40:35;97577.50;;;29.83;47.05
55066;BME280;40964;42.114;24.220;2023-06-14T10:43:20;97583.59;;;29.64;44.73
55066;BME280;40964;42.114;24.220;2023-06-14T10:46:16;97566.66;;;29.39;45.03
55066;BME280;40964;42.114;24.220;2023-06-14T10:48:48;97569.56;;;29.90;46.03
55066;BME280;40964;42.114;24.220;2023-06-14T10:51:20;97559.78;;;29.86;47.62
55066;BME280;40964;42.114;24.220;2023-06-14T10:53:49;97562.81;;;29.68;45.20
55066;BME280;40964;42.114;24.220;2023-06-14T10:58:50;97562.94;;;29.04;46.02
55066;BME280;40964;42.114;24.220;2023-06-14T11:01:35;97566.69;;;28.38;47.58
55066;BME280;40964;42.114;24.220;2023-06-14T11:04:09;97562.44;;;27.92;48.19
55066;BME280;40964;42.114;24.220;2023-06-14T11:06:47;97562.84;;;28.15;49.20
55066;BME280;40964;42.114;24.220;2023-06-14T11:09:21;97552.56;;;28.20;48.19
55066;BME280;40964;42.114;24.220;2023-06-14T11:11:53;97553.69;;;28.07;47.91
55066;BME280;40964;42.114;24.220;2023-06-14T11:14:21;97546.91;;;27.89;45.85
55066;BME280;40964;42.114;24.220;2023-06-14T11:16:50;97557.03;;;27.80;45.94
55066;BME280;40964;42.114;24.220;2023-06-14T11:19:15;97554.75;;;27.69;47.73
55066;BME280;40964;42.114;24.220;2023-06-14T11:21:42;97566.03;;;27.84;48.50
55066;BME280;40964;42.114;24.220;2023-06-14T11:24:12;97558.59;;;27.68;48.49
55066;BME280;40964;42.114;24.220;2023-06-14T11:26:38;97559.19;;;27.65;46.91
55066;BME280;40964;42.114;24.220;2023-06-14T11:29:03;97557.69;;;27.77;48.21
55066;BME280;40964;42.114;24.220;2023-06-14T11:31:29;97527.44;;;27.50;47.97
55066;BME280;40964;42.114;24.220;2023-06-14T11:33:56;97557.47;;;27.82;48.82
55066;BME280;40964;42.114;24.220;2023-06-14T11:36:23;97550.84;;;27.79;47.91
55066;BME280;40964;42.114;24.220;2023-06-14T11:38:48;97556.84;;;28.09;50.21
55066;BME280;40964;42.114;24.220;2023-06-14T11:41:14;97549.91;;;28.45;49.23
55066;BME280;40964;42.114;24.220;2023-06-14T11:43:40;97545.13;;;28.66;47.17
55066;BME280;40964;42.114;24.220;2023-06-14T11:46:12;97536.22;;;28.78;48.23
55066;BME280;40964;42.114;24.220;2023-06-14T11:48:41;97540.38;;;29.00;46.93
55066;BME280;40964;42.114;24.220;2023-06-14T11:51:07;97544.97;;;29.39;46.96
55066;BME280;40964;42.114;24.220;2023-06-14T11:53:32;97540.78;;;29.14;47.38
55066;BME280;40964;42.114;24.220;2023-06-14T11:55:59;97541.34;;;29.07;46.22
55066;BME280;40964;42.114;24.220;2023-06-14T11:58:25;97539.78;;;29.06;47.95
55066;BME280;40964;42.114;24.220;2023-06-14T12:00:52;97531.44;;;28.99;48.12
55066;BME280;40964;42.114;24.220;2023-06-14T12:03:17;97529.25;;;28.77;47.31
55066;BME280;40964;42.114;24.220;2023-06-14T12:05:47;97531.38;;;28.71;48.44
55066;BME280;40964;42.114;24.220;2023-06-14T12:08:12;97524.59;;;28.77;46.78
55066;BME280;40964;42.114;24.220;2023-06-14T12:10:43;97515.88;;;28.84;47.74
55066;BME280;40964;42.114;24.220;2023-06-14T12:13:09;97503.50;;;28.95;46.44
55066;BME280;40964;42.114;24.220;2023-06-14T12:15:35;97507.44;;;29.54;45.90
55066;BME280;40964;42.114;24.220;2023-06-14T12:18:01;97500.56;;;30.04;49.25
55066;BME280;40964;42.114;24.220;2023-06-14T12:20:30;97507.13;;;29.87;44.82
55066;BME280;40964;42.114;24.220;2023-06-14T12:23:02;97508.81;;;29.48;45.76
55066;BME280;40964;42.114;24.220;2023-06-14T12:25:33;97517.03;;;29.23;44.71
55066;BME280;40964;42.114;24.220;2023-06-14T12:28:04;97511.22;;;29.09;45.59
55066;BME280;40964;42.114;24.220;2023-06-14T12:30:30;97502.56;;;29.03;46.36
55066;BME280;40964;42.114;24.220;2023-06-14T12:32:55;97503.50;;;28.83;48.96
55066;BME280;40964;42.114;24.220;2023-06-14T12:35:21;97495.84;;;28.73;49.48
55066;BME280;40964;42.114;24.220;2023-06-14T12:37:46;97493.00;;;28.41;48.35
55066;BME280;40964;42.114;24.220;2023-06-14T12:40:13;97494.06;;;27.79;51.33
55066;BME280;40964;42.114;24.220;2023-06-14T12:42:38;97491.63;;;27.86;50.68
55066;BME280;40964;42.114;24.220;2023-06-14T12:45:04;97496.56;;;27.96;51.81
55066;BME280;40964;42.114;24.220;2023-06-14T12:47:30;97497.22;;;27.93;50.80
55066;BME280;40964;42.114;24.220;2023-06-14T12:49:55;97494.97;;;27.83;52.39
55066;BME280;40964;42.114;24.220;2023-06-14T12:52:21;97483.97;;;27.55;51.16
55066;BME280;40964;42.114;24.220;2023-06-14T12:54:46;97497.72;;;27.50;51.23
55066;BME280;40964;42.114;24.220;2023-06-14T12:57:12;97498.56;;;27.75;51.22
55066;BME280;40964;42.114;24.220;2023-06-14T12:59:37;97488.22;;;27.89;52.83